sensor_id;sensor_type;location;lat;lon;timestamp;temperature;humidity
21169;DHT22;10742;51.816;8.662;2023-06-22T00:01:47;25.10;84.40
21169;DHT22;10742;51.816;8.662;2023-06-22T00:04:49;25.20;84.60
21169;DHT22;10742;51.816;8.662;2023-06-22T00:07:52;25.10;84.50
21169;DHT22;10742;51.816;8.662;2023-06-22T00:10:54;25.00;84.40
21169;DHT22;10742;51.816;8.662;2023-06-22T00:13:56;25.00;84.50
21169;DHT22;10742;51.816;8.662;2023-06-22T00:16:58;25.00;84.60
21169;DHT22;10742;51.816;8.662;2023-06-22T00:20:01;24.90;84.70
21169;DHT22;10742;51.816;8.662;2023-06-22T00:23:05;24.90;84.80
21169;DHT22;10742;51.816;8.662;2023-06-22T00:26:11;24.90;85.00
21169;DHT22;10742;51.816;8.662;2023-06-22T00:29:14;24.90;85.10
21169;DHT22;10742;51.816;8.662;2023-06-22T00:32:16;24.90;85.20
21169;DHT22;10742;51.816;8.662;2023-06-22T00:35:22;24.90;85.00
21169;DHT22;10742;51.816;8.662;2023-06-22T00:38:24;24.80;84.80
21169;DHT22;10742;51.816;8.662;2023-06-22T00:41:27;24.70;84.80
21169;DHT22;10742;51.816;8.662;2023-06-22T00:44:38;24.70;85.00
21169;DHT22;10742;51.816;8.662;2023-06-22T00:47:41;24.60;85.40
21169;DHT22;10742;51.816;8.662;2023-06-22T00:50:45;24.60;85.30
21169;DHT22;10742;51.816;8.662;2023-06-22T00:53:52;24.50;85.50
21169;DHT22;10742;51.816;8.662;2023-06-22T00:57:14;24.50;85.70
21169;DHT22;10742;51.816;8.662;2023-06-22T01:00:38;24.40;85.70
21169;DHT22;10742;51.816;8.662;2023-06-22T01:03:59;24.40;85.70
21169;DHT22;10742;51.816;8.662;2023-06-22T01:07:28;24.40;85.70
21169;DHT22;10742;51.816;8.662;2023-06-22T01:11:07;24.30;85.90
21169;DHT22;10742;51.816;8.662;2023-06-22T01:14:39;24.30;85.80
21169;DHT22;10742;51.816;8.662;2023-06-22T01:18:04;24.30;86.10
21169;DHT22;10742;51.816;8.662;2023-06-22T01:21:30;24.30;86.00
21169;DHT22;10742;51.816;8.662;2023-06-22T01:25:11;24.30;86.30
21169;DHT22;10742;51.816;8.662;2023-06-22T01:28:46;24.20;86.60
21169;DHT22;10742;51.816;8.662;2023-06-22T01:32:08;24.30;86.80
21169;DHT22;10742;51.816;8.662;2023-06-22T01:35:30;24.30;86.40
21169;DHT22;10742;51.816;8.662;2023-06-22T01:38:54;24.30;86.60
21169;DHT22;10742;51.816;8.662;2023-06-22T01:42:16;24.30;86.60
21169;DHT22;10742;51.816;8.662;2023-06-22T01:45:38;24.30;86.60
21169;DHT22;10742;51.816;8.662;2023-06-22T01:48:40;24.20;86.40
21169;DHT22;10742;51.816;8.662;2023-06-22T01:51:43;24.20;86.60
21169;DHT22;10742;51.816;8.662;2023-06-22T01:54:45;24.20;86.70
21169;DHT22;10742;51.816;8.662;2023-06-22T01:57:48;24.20;86.70
21169;DHT22;10742;51.816;8.662;2023-06-22T02:00:58;24.20;86.90
21169;DHT22;10742;51.816;8.662;2023-06-22T02:04:11;24.20;87.20
21169;DHT22;10742;51.816;8.662;2023-06-22T02:07:17;24.20;86.90
21169;DHT22;10742;51.816;8.662;2023-06-22T02:10:21;24.20;87.60
21169;DHT22;10742;51.816;8.662;2023-06-22T02:13:25;24.10;86.90
21169;DHT22;10742;51.816;8.662;2023-06-22T02:16:31;24.20;87.00
21169;DHT22;10742;51.816;8.662;2023-06-22T02:19:36;24.20;87.20
21169;DHT22;10742;51.816;8.662;2023-06-22T02:22:39;24.20;87.20
21169;DHT22;10742;51.816;8.662;2023-06-22T02:25:41;24.20;87.00
21169;DHT22;10742;51.816;8.662;2023-06-22T02:28:46;24.20;87.10
21169;DHT22;10742;51.816;8.662;2023-06-22T02:31:52;24.20;87.20
21169;DHT22;10742;51.816;8.662;2023-06-22T02:34:54;24.20;87.30
21169;DHT22;10742;51.816;8.662;2023-06-22T02:37:59;24.20;87.30
21169;DHT22;10742;51.816;8.662;2023-06-22T02:41:03;24.30;87.50
21169;DHT22;10742;51.816;8.662;2023-06-22T02:44:05;24.30;87.50
21169;DHT22;10742;51.816;8.662;2023-06-22T02:47:07;24.20;87.50
21169;DHT22;10742;51.816;8.662;2023-06-22T02:50:10;24.20;87.60
21169;DHT22;10742;51.816;8.662;2023-06-22T02:53:12;24.20;87.70
21169;DHT22;10742;51.816;8.662;2023-06-22T02:56:19;24.20;87.80
21169;DHT22;10742;51.816;8.662;2023-06-22T02:59:30;24.20;87.80
21169;DHT22;10742;51.816;8.662;2023-06-22T03:02:40;24.20;87.90
21169;DHT22;10742;51.816;8.662;2023-06-22T03:05:43;24.30;88.10
21169;DHT22;10742;51.816;8.662;2023-06-22T03:08:45;24.30;89.00
21169;DHT22;10742;51.816;8.662;2023-06-22T03:11:48;24.30;88.30
21169;DHT22;10742;51.816;8.662;2023-06-22T03:14:51;24.30;88.40
21169;DHT22;10742;51.816;8.662;2023-06-22T03:17:53;24.20;88.50
21169;DHT22;10742;51.816;8.662;2023-06-22T03:20:57;24.30;88.70
21169;DHT22;10742;51.816;8.662;2023-06-22T03:24:00;24.30;88.60
21169;DHT22;10742;51.816;8.662;2023-06-22T03:27:03;24.30;88.40
21169;DHT22;10742;51.816;8.662;2023-06-22T03:30:10;24.30;88.30
21169;DHT22;10742;51.816;8.662;2023-06-22T03:33:13;24.40;88.40
21169;DHT22;10742;51.816;8.662;2023-06-22T03:36:17;24.40;88.40
21169;DHT22;10742;51.816;8.662;2023-06-22T03:39:22;24.40;88.40
21169;DHT22;10742;51.816;8.662;2023-06-22T03:42:25;24.40;88.10
21169;DHT22;10742;51.816;8.662;2023-06-22T03:45:28;24.40;88.20
21169;DHT22;10742;51.816;8.662;2023-06-22T03:48:30;24.30;88.30
21169;DHT22;10742;51.816;8.662;2023-06-22T03:51:32;24.30;88.50
21169;DHT22;10742;51.816;8.662;2023-06-22T03:54:35;24.30;88.70
21169;DHT22;10742;51.816;8.662;2023-06-22T03:57:37;24.30;88.70
21169;DHT22;10742;51.816;8.662;2023-06-22T04:00:39;24.30;88.90
21169;DHT22;10742;51.816;8.662;2023-06-22T04:03:42;24.30;89.00
21169;DHT22;10742;51.816;8.662;2023-06-22T04:06:44;24.30;89.10
21169;DHT22;10742;51.816;8.662;2023-06-22T04:09:46;24.30;89.10
21169;DHT22;10742;51.816;8.662;2023-06-22T04:12:49;24.30;89.00
21169;DHT22;10742;51.816;8.662;2023-06-22T04:15:51;24.30;89.00
21169;DHT22;10742;51.816;8.662;2023-06-22T04:18:53;24.40;89.00
21169;DHT22;10742;51.816;8.662;2023-06-22T04:21:56;24.40;89.00
21169;DHT22;10742;51.816;8.662;2023-06-22T04:24:58;24.40;89.00
21169;DHT22;10742;51.816;8.662;2023-06-22T04:28:00;24.50;88.90
21169;DHT22;10742;51.816;8.662;2023-06-22T04:31:05;24.50;88.90
21169;DHT22;10742;51.816;8.662;2023-06-22T04:34:07;24.50;88.80
21169;DHT22;10742;51.816;8.662;2023-06-22T04:37:10;24.60;88.80
21169;DHT22;10742;51.816;8.662;2023-06-22T04:40:17;24.60;88.70
21169;DHT22;10742;51.816;8.662;2023-06-22T04:43:20;24.70;88.60
21169;DHT22;10742;51.816;8.662;2023-06-22T04:46:22;24.70;88.50
21169;DHT22;10742;51.816;8.662;2023-06-22T04:49:24;24.70;88.60
21169;DHT22;10742;51.816;8.662;2023-06-22T04:52:34;24.70;88.70
21169;DHT22;10742;51.816;8.662;2023-06-22T04:55:36;24.70;88.80
21169;DHT22;10742;51.816;8.662;2023-06-22T04:58:40;24.70;88.60
21169;DHT22;10742;51.816;8.662;2023-06-22T05:01:42;24.70;88.50
21169;DHT22;10742;51.816;8.662;2023-06-22T05:04:44;24.70;88.70
21169;DHT22;10742;51.816;8.662;2023-06-22T05:07:47;24.70;89.20
21169;DHT22;10742;51.816;8.662;2023-06-22T05:10:52;24.70;89.60
21169;DHT22;10742;51.816;8.662;2023-06-22T05:14:04;24.70;89.70
21169;DHT22;10742;51.816;8.662;2023-06-22T05:17:07;24.70;89.70
21169;DHT22;10742;51.816;8.662;2023-06-22T05:20:16;24.70;90.00
21169;DHT22;10742;51.816;8.662;2023-06-22T05:23:20;24.70;90.10
21169;DHT22;10742;51.816;8.662;2023-06-22T05:26:23;24.70;90.20
21169;DHT22;10742;51.816;8.662;2023-06-22T05:29:26;24.70;90.30
21169;DHT22;10742;51.816;8.662;2023-06-22T05:32:28;24.80;90.30
21169;DHT22;10742;51.816;8.662;2023-06-22T05:35:31;24.90;90.40
21169;DHT22;10742;51.816;8.662;2023-06-22T05:38:33;24.90;90.30
21169;DHT22;10742;51.816;8.662;2023-06-22T05:41:35;25.00;90.30
21169;DHT22;10742;51.816;8.662;2023-06-22T05:44:38;25.00;90.30
21169;DHT22;10742;51.816;8.662;2023-06-22T05:47:42;25.10;90.40
21169;DHT22;10742;51.816;8.662;2023-06-22T05:50:45;25.10;90.40
21169;DHT22;10742;51.816;8.662;2023-06-22T05:53:47;25.20;90.40
21169;DHT22;10742;51.816;8.662;2023-06-22T05:56:51;25.20;90.40
21169;DHT22;10742;51.816;8.662;2023-06-22T05:59:54;25.30;90.40
21169;DHT22;10742;51.816;8.662;2023-06-22T06:02:56;25.30;90.50
21169;DHT22;10742;51.816;8.662;2023-06-22T06:05:59;25.30;90.50
21169;DHT22;10742;51.816;8.662;2023-06-22T06:09:01;25.40;90.60
21169;DHT22;10742;51.816;8.662;2023-06-22T06:12:03;25.50;90.70
21169;DHT22;10742;51.816;8.662;2023-06-22T06:15:06;25.60;90.70
21169;DHT22;10742;51.816;8.662;2023-06-22T06:18:10;25.70;90.70
21169;DHT22;10742;51.816;8.662;2023-06-22T06:21:12;25.90;90.50
21169;DHT22;10742;51.816;8.662;2023-06-22T06:24:14;26.00;90.30
21169;DHT22;10742;51.816;8.662;2023-06-22T06:27:16;26.20;90.30
21169;DHT22;10742;51.816;8.662;2023-06-22T06:30:22;26.30;90.10
21169;DHT22;10742;51.816;8.662;2023-06-22T06:33:24;26.40;89.90
21169;DHT22;10742;51.816;8.662;2023-06-22T06:36:27;26.50;89.40
21169;DHT22;10742;51.816;8.662;2023-06-22T06:39:29;26.60;88.90
21169;DHT22;10742;51.816;8.662;2023-06-22T06:42:32;26.70;88.80
21169;DHT22;10742;51.816;8.662;2023-06-22T06:45:34;26.80;88.80
21169;DHT22;10742;51.816;8.662;2023-06-22T06:48:36;26.90;88.60
21169;DHT22;10742;51.816;8.662;2023-06-22T06:51:39;27.00;88.50
21169;DHT22;10742;51.816;8.662;2023-06-22T06:54:41;27.00;88.30
21169;DHT22;10742;51.816;8.662;2023-06-22T06:57:44;27.10;88.50
21169;DHT22;10742;51.816;8.662;2023-06-22T07:00:47;27.20;88.30
21169;DHT22;10742;51.816;8.662;2023-06-22T07:03:49;27.20;88.70
21169;DHT22;10742;51.816;8.662;2023-06-22T07:06:51;27.20;88.40
21169;DHT22;10742;51.816;8.662;2023-06-22T07:09:54;27.20;87.70
21169;DHT22;10742;51.816;8.662;2023-06-22T07:12:56;27.30;87.50
21169;DHT22;10742;51.816;8.662;2023-06-22T07:15:59;27.30;87.30
21169;DHT22;10742;51.816;8.662;2023-06-22T07:19:01;27.30;87.50
21169;DHT22;10742;51.816;8.662;2023-06-22T07:22:04;27.30;87.80
21169;DHT22;10742;51.816;8.662;2023-06-22T07:25:06;27.30;87.90
21169;DHT22;10742;51.816;8.662;2023-06-22T07:28:12;27.30;88.20
21169;DHT22;10742;51.816;8.662;2023-06-22T07:31:14;27.30;88.50
21169;DHT22;10742;51.816;8.662;2023-06-22T07:34:17;27.30;88.70
21169;DHT22;10742;51.816;8.662;2023-06-22T07:37:20;27.20;89.10
21169;DHT22;10742;51.816;8.662;2023-06-22T07:40:23;27.20;88.70
21169;DHT22;10742;51.816;8.662;2023-06-22T07:43:25;27.20;89.40
21169;DHT22;10742;51.816;8.662;2023-06-22T07:46:28;27.20;89.80
21169;DHT22;10742;51.816;8.662;2023-06-22T07:49:32;27.20;90.00
21169;DHT22;10742;51.816;8.662;2023-06-22T07:52:35;27.20;89.80
21169;DHT22;10742;51.816;8.662;2023-06-22T07:55:37;27.30;90.00
21169;DHT22;10742;51.816;8.662;2023-06-22T07:58:39;27.20;90.40
21169;DHT22;10742;51.816;8.662;2023-06-22T08:01:42;27.30;90.00
21169;DHT22;10742;51.816;8.662;2023-06-22T08:04:44;27.30;90.10
21169;DHT22;10742;51.816;8.662;2023-06-22T08:07:48;27.30;89.90
21169;DHT22;10742;51.816;8.662;2023-06-22T08:10:50;27.30;90.00
21169;DHT22;10742;51.816;8.662;2023-06-22T08:13:53;27.30;89.70
21169;DHT22;10742;51.816;8.662;2023-06-22T08:16:57;27.30;89.50
21169;DHT22;10742;51.816;8.662;2023-06-22T08:20:00;27.30;89.90
21169;DHT22;10742;51.816;8.662;2023-06-22T08:23:02;27.30;89.70
21169;DHT22;10742;51.816;8.662;2023-06-22T08:26:08;27.30;89.60
21169;DHT22;10742;51.816;8.662;2023-06-22T08:29:10;27.20;89.50
21169;DHT22;10742;51.816;8.662;2023-06-22T08:32:12;27.20;89.80
21169;DHT22;10742;51.816;8.662;2023-06-22T08:35:15;27.20;90.00
21169;DHT22;10742;51.816;8.662;2023-06-22T08:38:17;27.20;90.10
21169;DHT22;10742;51.816;8.662;2023-06-22T08:41:20;27.10;90.10
21169;DHT22;10742;51.816;8.662;2023-06-22T08:44:23;27.10;90.20
21169;DHT22;10742;51.816;8.662;2023-06-22T08:47:27;27.20;90.40
21169;DHT22;10742;51.816;8.662;2023-06-22T08:50:29;27.10;90.50
21169;DHT22;10742;51.816;8.662;2023-06-22T08:53:31;27.10;90.50
21169;DHT22;10742;51.816;8.662;2023-06-22T08:56:34;27.20;90.60
21169;DHT22;10742;51.816;8.662;2023-06-22T08:59:36;27.10;91.00
21169;DHT22;10742;51.816;8.662;2023-06-22T09:02:38;27.30;91.20
21169;DHT22;10742;51.816;8.662;2023-06-22T09:05:42;27.40;91.50
21169;DHT22;10742;51.816;8.662;2023-06-22T09:08:45;27.60;91.40
21169;DHT22;10742;51.816;8.662;2023-06-22T09:11:48;27.80;91.40
21169;DHT22;10742;51.816;8.662;2023-06-22T09:14:50;28.10;91.40
21169;DHT22;10742;51.816;8.662;2023-06-22T09:17:52;28.40;90.90
21169;DHT22;10742;51.816;8.662;2023-06-22T09:20:56;28.70;90.90
21169;DHT22;10742;51.816;8.662;2023-06-22T09:23:58;28.90;90.30
21169;DHT22;10742;51.816;8.662;2023-06-22T09:27:01;29.20;89.90
21169;DHT22;10742;51.816;8.662;2023-06-22T09:30:04;29.50;88.90
21169;DHT22;10742;51.816;8.662;2023-06-22T09:33:06;29.70;87.90
21169;DHT22;10742;51.816;8.662;2023-06-22T09:36:09;30.00;87.00
21169;DHT22;10742;51.816;8.662;2023-06-22T09:39:11;30.30;86.40
21169;DHT22;10742;51.816;8.662;2023-06-22T09:42:13;30.50;85.30
21169;DHT22;10742;51.816;8.662;2023-06-22T09:45:16;30.80;83.90
21169;DHT22;10742;51.816;8.662;2023-06-22T09:48:19;31.00;83.90
21169;DHT22;10742;51.816;8.662;2023-06-22T09:51:22;31.20;82.40
21169;DHT22;10742;51.816;8.662;2023-06-22T09:54:25;31.30;80.90
21169;DHT22;10742;51.816;8.662;2023-06-22T09:57:28;31.40;81.20
21169;DHT22;10742;51.816;8.662;2023-06-22T10:00:30;31.50;80.30
21169;DHT22;10742;51.816;8.662;2023-06-22T10:03:33;31.60;79.80
21169;DHT22;10742;51.816;8.662;2023-06-22T10:06:35;31.80;79.40
21169;DHT22;10742;51.816;8.662;2023-06-22T10:09:37;32.00;78.90
21169;DHT22;10742;51.816;8.662;2023-06-22T10:12:46;32.10;79.00
21169;DHT22;10742;51.816;8.662;2023-06-22T10:15:48;32.30;76.50
21169;DHT22;10742;51.816;8.662;2023-06-22T10:18:53;32.50;76.40
21169;DHT22;10742;51.816;8.662;2023-06-22T10:21:55;32.70;75.40
21169;DHT22;10742;51.816;8.662;2023-06-22T10:24:58;32.90;72.90
21169;DHT22;10742;51.816;8.662;2023-06-22T10:28:00;33.10;71.90
21169;DHT22;10742;51.816;8.662;2023-06-22T10:31:02;33.20;70.60
21169;DHT22;10742;51.816;8.662;2023-06-22T10:34:05;33.30;70.00
21169;DHT22;10742;51.816;8.662;2023-06-22T10:37:07;33.50;69.90
21169;DHT22;10742;51.816;8.662;2023-06-22T10:40:13;33.50;69.10
21169;DHT22;10742;51.816;8.662;2023-06-22T10:43:15;33.70;68.00
21169;DHT22;10742;51.816;8.662;2023-06-22T10:46:18;33.70;66.20
21169;DHT22;10742;51.816;8.662;2023-06-22T10:49:20;33.70;65.50
21169;DHT22;10742;51.816;8.662;2023-06-22T10:52:22;33.80;65.50
21169;DHT22;10742;51.816;8.662;2023-06-22T10:55:25;33.80;65.30
21169;DHT22;10742;51.816;8.662;2023-06-22T10:58:27;33.90;64.80
21169;DHT22;10742;51.816;8.662;2023-06-22T11:01:29;33.90;64.80
21169;DHT22;10742;51.816;8.662;2023-06-22T11:04:36;33.90;64.60
21169;DHT22;10742;51.816;8.662;2023-06-22T11:07:41;33.90;63.80
21169;DHT22;10742;51.816;8.662;2023-06-22T11:10:45;33.90;62.30
21169;DHT22;10742;51.816;8.662;2023-06-22T11:13:47;33.90;63.20
21169;DHT22;10742;51.816;8.662;2023-06-22T11:16:50;33.90;62.40
21169;DHT22;10742;51.816;8.662;2023-06-22T11:19:52;33.90;62.20
21169;DHT22;10742;51.816;8.662;2023-06-22T11:22:54;33.90;61.80
21169;DHT22;10742;51.816;8.662;2023-06-22T11:25:57;33.80;61.80
21169;DHT22;10742;51.816;8.662;2023-06-22T11:29:00;33.70;62.10
21169;DHT22;10742;51.816;8.662;2023-06-22T11:32:02;33.60;62.50
21169;DHT22;10742;51.816;8.662;2023-06-22T11:35:05;33.60;62.60
21169;DHT22;10742;51.816;8.662;2023-06-22T11:38:07;33.50;62.80
21169;DHT22;10742;51.816;8.662;2023-06-22T11:41:10;33.40;63.30
21169;DHT22;10742;51.816;8.662;2023-06-22T11:44:31;33.40;63.20
21169;DHT22;10742;51.816;8.662;2023-06-22T11:47:52;33.20;63.40
21169;DHT22;10742;51.816;8.662;2023-06-22T11:50:55;33.00;64.10
21169;DHT22;10742;51.816;8.662;2023-06-22T11:53:58;32.80;65.10
21169;DHT22;10742;51.816;8.662;2023-06-22T11:57:01;32.70;65.40
21169;DHT22;10742;51.816;8.662;2023-06-22T12:00:04;32.60;65.70
21169;DHT22;10742;51.816;8.662;2023-06-22T12:03:18;32.40;66.00
21169;DHT22;10742;51.816;8.662;2023-06-22T12:06:21;32.30;66.70
21169;DHT22;10742;51.816;8.662;2023-06-22T12:09:23;32.20;67.30
21169;DHT22;10742;51.816;8.662;2023-06-22T12:12:26;32.20;68.00
21169;DHT22;10742;51.816;8.662;2023-06-22T12:15:28;32.20;68.30
21169;DHT22;10742;51.816;8.662;2023-06-22T12:18:30;32.20;68.60
21169;DHT22;10742;51.816;8.662;2023-06-22T12:21:32;32.30;68.50
21169;DHT22;10742;51.816;8.662;2023-06-22T12:24:35;32.40;68.60
21169;DHT22;10742;51.816;8.662;2023-06-22T12:27:37;32.50;68.00
21169;DHT22;10742;51.816;8.662;2023-06-22T12:30:39;32.40;67.40
21169;DHT22;10742;51.816;8.662;2023-06-22T12:33:42;32.40;67.30
21169;DHT22;10742;51.816;8.662;2023-06-22T12:36:44;32.30;67.70
21169;DHT22;10742;51.816;8.662;2023-06-22T12:39:46;32.20;68.30
21169;DHT22;10742;51.816;8.662;2023-06-22T12:42:49;32.10;69.50
21169;DHT22;10742;51.816;8.662;2023-06-22T12:45:51;32.00;70.00
21169;DHT22;10742;51.816;8.662;2023-06-22T12:48:55;31.90;71.10
21169;DHT22;10742;51.816;8.662;2023-06-22T12:51:58;31.70;72.10
21169;DHT22;10742;51.816;8.662;2023-06-22T12:55:00;31.60;73.20
21169;DHT22;10742;51.816;8.662;2023-06-22T12:58:03;31.50;74.90
21169;DHT22;10742;51.816;8.662;2023-06-22T13:01:05;31.20;75.40
21169;DHT22;10742;51.816;8.662;2023-06-22T13:04:07;31.10;76.60
21169;DHT22;10742;51.816;8.662;2023-06-22T13:07:10;30.80;77.50
21169;DHT22;10742;51.816;8.662;2023-06-22T13:10:16;30.60;78.10
21169;DHT22;10742;51.816;8.662;2023-06-22T13:13:18;30.30;78.70
21169;DHT22;10742;51.816;8.662;2023-06-22T13:16:20;30.10;79.60
21169;DHT22;10742;51.816;8.662;2023-06-22T13:19:22;29.80;80.20
21169;DHT22;10742;51.816;8.662;2023-06-22T13:22:35;29.50;81.00
21169;DHT22;10742;51.816;8.662;2023-06-22T13:25:45;29.30;82.80
21169;DHT22;10742;51.816;8.662;2023-06-22T13:28:47;29.10;82.60
21169;DHT22;10742;51.816;8.662;2023-06-22T13:31:49;28.90;83.30
21169;DHT22;10742;51.816;8.662;2023-06-22T13:34:53;28.80;84.20
21169;DHT22;10742;51.816;8.662;2023-06-22T13:37:55;28.50;84.80
21169;DHT22;10742;51.816;8.662;2023-06-22T13:40:58;28.40;85.50
21169;DHT22;10742;51.816;8.662;2023-06-22T13:44:01;28.30;87.00
21169;DHT22;10742;51.816;8.662;2023-06-22T13:47:04;28.20;86.70
21169;DHT22;10742;51.816;8.662;2023-06-22T13:50:07;28.10;87.20
21169;DHT22;10742;51.816;8.662;2023-06-22T13:53:09;27.90;87.80
21169;DHT22;10742;51.816;8.662;2023-06-22T13:56:11;27.70;88.20
21169;DHT22;10742;51.816;8.662;2023-06-22T13:59:14;27.60;88.80
21169;DHT22;10742;51.816;8.662;2023-06-22T14:02:16;27.40;89.10
21169;DHT22;10742;51.816;8.662;2023-06-22T14:05:19;27.30;89.60
21169;DHT22;10742;51.816;8.662;2023-06-22T14:08:21;27.20;90.00
21169;DHT22;10742;51.816;8.662;2023-06-22T14:11:33;27.10;90.40
21169;DHT22;10742;51.816;8.662;2023-06-22T14:14:35;26.90;90.60
21169;DHT22;10742;51.816;8.662;2023-06-22T14:17:37;26.80;90.80
21169;DHT22;10742;51.816;8.662;2023-06-22T14:20:40;26.70;91.00
21169;DHT22;10742;51.816;8.662;2023-06-22T14:23:42;26.60;91.20
21169;DHT22;10742;51.816;8.662;2023-06-22T14:26:51;26.50;91.80
21169;DHT22;10742;51.816;8.662;2023-06-22T14:29:53;26.40;91.60
21169;DHT22;10742;51.816;8.662;2023-06-22T14:32:55;26.30;91.80
21169;DHT22;10742;51.816;8.662;2023-06-22T14:35:58;26.20;91.90
21169;DHT22;10742;51.816;8.662;2023-06-22T14:39:00;26.10;92.30
21169;DHT22;10742;51.816;8.662;2023-06-22T14:42:02;26.00;92.20
21169;DHT22;10742;51.816;8.662;2023-06-22T14:45:07;25.90;92.30
21169;DHT22;10742;51.816;8.662;2023-06-22T14:48:10;25.90;92.50
21169;DHT22;10742;51.816;8.662;2023-06-22T14:51:13;25.90;92.60
21169;DHT22;10742;51.816;8.662;2023-06-22T14:54:17;25.80;92.70
21169;DHT22;10742;51.816;8.662;2023-06-22T14:57:20;25.80;92.70
21169;DHT22;10742;51.816;8.662;2023-06-22T15:00:24;25.80;92.70
21169;DHT22;10742;51.816;8.662;2023-06-22T15:03:27;25.80;92.90
21169;DHT22;10742;51.816;8.662;2023-06-22T15:06:30;25.70;93.00
21169;DHT22;10742;51.816;8.662;2023-06-22T15:09:33;25.70;93.30
21169;DHT22;10742;51.816;8.662;2023-06-22T15:12:36;25.60;93.30
21169;DHT22;10742;51.816;8.662;2023-06-22T15:15:38;25.60;93.50
21169;DHT22;10742;51.816;8.662;2023-06-22T15:18:40;25.60;93.80
21169;DHT22;10742;51.816;8.662;2023-06-22T15:21:43;25.60;94.10
21169;DHT22;10742;51.816;8.662;2023-06-22T15:24:46;25.70;94.30
21169;DHT22;10742;51.816;8.662;2023-06-22T15:27:50;25.80;94.50
21169;DHT22;10742;51.816;8.662;2023-06-22T15:30:52;25.90;94.60
21169;DHT22;10742;51.816;8.662;2023-06-22T15:33:55;26.00;94.50
21169;DHT22;10742;51.816;8.662;2023-06-22T15:36:57;26.20;94.70
21169;DHT22;10742;51.816;8.662;2023-06-22T15:39:59;26.30;95.00
21169;DHT22;10742;51.816;8.662;2023-06-22T15:43:02;26.40;94.60
21169;DHT22;10742;51.816;8.662;2023-06-22T15:46:04;26.60;94.60
21169;DHT22;10742;51.816;8.662;2023-06-22T15:49:06;26.80;94.60
21169;DHT22;10742;51.816;8.662;2023-06-22T15:52:08;26.90;94.20
21169;DHT22;10742;51.816;8.662;2023-06-22T15:55:11;27.00;94.00
21169;DHT22;10742;51.816;8.662;2023-06-22T15:58:14;27.10;94.00
21169;DHT22;10742;51.816;8.662;2023-06-22T16:01:18;27.10;93.80
21169;DHT22;10742;51.816;8.662;2023-06-22T16:04:21;27.20;93.70
21169;DHT22;10742;51.816;8.662;2023-06-22T16:07:23;27.20;93.70
21169;DHT22;10742;51.816;8.662;2023-06-22T16:10:26;27.20;93.60
21169;DHT22;10742;51.816;8.662;2023-06-22T16:13:28;27.30;93.60
21169;DHT22;10742;51.816;8.662;2023-06-22T16:16:31;27.30;93.50
21169;DHT22;10742;51.816;8.662;2023-06-22T16:19:33;27.30;93.20
21169;DHT22;10742;51.816;8.662;2023-06-22T16:22:36;27.30;93.10
21169;DHT22;10742;51.816;8.662;2023-06-22T16:25:39;27.30;93.00
21169;DHT22;10742;51.816;8.662;2023-06-22T16:28:41;27.20;92.90
21169;DHT22;10742;51.816;8.662;2023-06-22T16:31:43;27.20;92.90
21169;DHT22;10742;51.816;8.662;2023-06-22T16:34:46;27.00;92.90
21169;DHT22;10742;51.816;8.662;2023-06-22T16:37:48;27.00;93.00
21169;DHT22;10742;51.816;8.662;2023-06-22T16:40:50;26.90;93.00
21169;DHT22;10742;51.816;8.662;2023-06-22T16:43:53;26.80;93.10
21169;DHT22;10742;51.816;8.662;2023-06-22T16:46:55;26.70;93.20
21169;DHT22;10742;51.816;8.662;2023-06-22T16:49:59;26.70;93.30
21169;DHT22;10742;51.816;8.662;2023-06-22T16:53:01;26.60;93.70
21169;DHT22;10742;51.816;8.662;2023-06-22T16:56:04;26.60;93.80
21169;DHT22;10742;51.816;8.662;2023-06-22T16:59:06;26.60;93.80
21169;DHT22;10742;51.816;8.662;2023-06-22T17:02:16;26.60;93.90
21169;DHT22;10742;51.816;8.662;2023-06-22T17:05:20;26.70;94.30
21169;DHT22;10742;51.816;8.662;2023-06-22T17:08:23;26.70;93.90
21169;DHT22;10742;51.816;8.662;2023-06-22T17:11:28;26.80;94.10
21169;DHT22;10742;51.816;8.662;2023-06-22T17:14:30;26.80;94.10
21169;DHT22;10742;51.816;8.662;2023-06-22T17:17:33;26.80;94.10
21169;DHT22;10742;51.816;8.662;2023-06-22T17:20:37;26.90;94.20
21169;DHT22;10742;51.816;8.662;2023-06-22T17:23:39;26.90;94.20
21169;DHT22;10742;51.816;8.662;2023-06-22T17:26:45;26.90;94.20
21169;DHT22;10742;51.816;8.662;2023-06-22T17:30:07;26.90;94.30
21169;DHT22;10742;51.816;8.662;2023-06-22T17:33:14;26.90;94.80
21169;DHT22;10742;51.816;8.662;2023-06-22T17:36:16;26.90;94.20
21169;DHT22;10742;51.816;8.662;2023-06-22T17:39:20;26.80;94.00
21169;DHT22;10742;51.816;8.662;2023-06-22T17:42:23;26.80;94.20
21169;DHT22;10742;51.816;8.662;2023-06-22T17:45:25;26.70;94.20
21169;DHT22;10742;51.816;8.662;2023-06-22T17:48:30;26.60;94.20
21169;DHT22;10742;51.816;8.662;2023-06-22T17:51:33;26.50;94.20
21169;DHT22;10742;51.816;8.662;2023-06-22T17:54:35;26.40;94.30
21169;DHT22;10742;51.816;8.662;2023-06-22T17:57:40;26.30;94.40
21169;DHT22;10742;51.816;8.662;2023-06-22T18:00:47;26.10;94.60
21169;DHT22;10742;51.816;8.662;2023-06-22T18:03:50;25.90;94.90
21169;DHT22;10742;51.816;8.662;2023-06-22T18:06:52;25.80;95.10
21169;DHT22;10742;51.816;8.662;2023-06-22T18:09:57;25.70;95.40
21169;DHT22;10742;51.816;8.662;2023-06-22T18:13:01;25.60;95.70
21169;DHT22;10742;51.816;8.662;2023-06-22T18:16:05;25.50;95.90
21169;DHT22;10742;51.816;8.662;2023-06-22T18:19:09;25.40;96.00
21169;DHT22;10742;51.816;8.662;2023-06-22T18:22:14;25.50;96.20
21169;DHT22;10742;51.816;8.662;2023-06-22T18:25:16;25.30;96.10
21169;DHT22;10742;51.816;8.662;2023-06-22T18:28:38;25.40;96.30
21169;DHT22;10742;51.816;8.662;2023-06-22T18:31:59;25.40;96.20
21169;DHT22;10742;51.816;8.662;2023-06-22T18:35:20;25.40;96.10
21169;DHT22;10742;51.816;8.662;2023-06-22T18:38:42;25.40;96.20
21169;DHT22;10742;51.816;8.662;2023-06-22T18:42:10;25.50;96.10
21169;DHT22;10742;51.816;8.662;2023-06-22T18:45:26;25.40;96.00
21169;DHT22;10742;51.816;8.662;2023-06-22T18:48:29;25.40;96.20
21169;DHT22;10742;51.816;8.662;2023-06-22T18:51:48;25.30;95.90
21169;DHT22;10742;51.816;8.662;2023-06-22T18:54:51;25.30;96.30
21169;DHT22;10742;51.816;8.662;2023-06-22T18:58:12;25.30;95.90
21169;DHT22;10742;51.816;8.662;2023-06-22T19:01:17;25.20;96.50
21169;DHT22;10742;51.816;8.662;2023-06-22T19:04:19;25.30;95.90
21169;DHT22;10742;51.816;8.662;2023-06-22T19:11:11;25.30;96.20
21169;DHT22;10742;51.816;8.662;2023-06-22T19:14:21;25.30;96.20
21169;DHT22;10742;51.816;8.662;2023-06-22T19:17:24;25.40;96.00
21169;DHT22;10742;51.816;8.662;2023-06-22T19:20:31;25.40;95.70
21169;DHT22;10742;51.816;8.662;2023-06-22T19:23:37;25.40;95.80
21169;DHT22;10742;51.816;8.662;2023-06-22T19:26:50;25.50;95.70
21169;DHT22;10742;51.816;8.662;2023-06-22T19:29:53;25.50;95.70